• Join FlightAware (Why Join?)
  • Login
  • US Flag 
04:34PM EDT


 

Airport Tracker/Info


-or-


 

Live Flight TrackerFlight Track Log ✈ RPA3392 ✈ 31-May-2013 ✈ KMSP - KDCA

Flight Track Log - Related Links

Times and Time Zones

All times are in EDT time to prevent confusion due to time zone crossing. See the RPA3392 flight status page for this flight to view local times or setup timezone preferences in your user account.

Time Position Orientation Groundspeed Altitude Reporting Facility
EDT Latitude Longitude Course Direction KTS MPH feet Rate Location/Type
06:03PM 44.8333 -93.2000 132° Southeast 172 198 3,100  Level Minneapolis TRACON
06:04PM 44.7577 -92.7688 111° Southeast  Level Estimated
06:04PM 44.8178 -93.1292 107° East 217 250 4,600  Level Minneapolis Center
06:05PM 44.7172 -92.6229 113° Southeast  Level Estimated
06:05PM 44.7850 -93.0136 112° Southeast 273 314 7,300  Level Minneapolis Center
06:06PM 44.6764 -92.4772 125° Southeast  Level Estimated
06:06PM 44.7550 -92.9083 112° Southeast 288 331 10,100  Level Minneapolis Center
06:07PM 44.6356 -92.3318 117° Southeast  Level Estimated
06:07PM 44.7250 -92.7967 111° Southeast 304 350 12,800  Level Minneapolis Center
06:08PM 44.5596 -92.2147 132° Southeast  Level FlightAware Approximate
06:08PM 44.6903 -92.6756 112° Southeast 334 384 14,900  Level Minneapolis Center
06:09PM 44.6542 -92.5519 112° Southeast 340 391 18,300 3,000 Climbing Minneapolis Center
06:10PM 44.6269 -92.4278 107° East 335 386 21,100 2,340 Climbing Minneapolis Center
06:11PM 44.6033 -92.3011 105° East 336 387 23,200 1,800 Climbing Minneapolis Center
06:12PM 44.5658 -92.1500 109° East 342 394 24,900 1,200 Climbing Minneapolis Center
06:13PM 44.5183 -92.0222 118° Southeast 367 422 25,800 960 Climbing Minneapolis Center
06:14PM 44.4633 -91.8872 120° Southeast 394 453 27,000 960 Climbing Minneapolis Center
06:15PM 44.4061 -91.7508 120° Southeast 406 467 27,900 1,020 Climbing Minneapolis Center
06:16PM 44.3467 -91.6086 120° Southeast 420 483 29,200 1,200 Climbing Minneapolis Center
06:17PM 44.2881 -91.4669 120° Southeast 424 488 30,400 1,200 Climbing Minneapolis Center
06:18PM 44.2150 -91.2950 121° Southeast 429 494 31,800 1,200 Climbing Minneapolis Center
06:19PM 44.1597 -91.1622 120° Southeast 427 491 33,000 540 Climbing Minneapolis Center
06:20PM 44.1000 -91.0242 121° Southeast 421 484 33,000  Level Minneapolis Center
06:21PM 44.0383 -90.8786 120° Southeast 434 499 33,000  Level Minneapolis Center
06:22PM 43.9675 -90.7142 121° Southeast 419 482 33,000 180 Level Minneapolis Center
06:23PM 43.9086 -90.5756 120° Southeast 420 483 33,400 600 Climbing Minneapolis Center
06:24PM 43.8825 -90.5211 124° Southeast 423 487 33,800 840 Climbing Chicago Center
06:24PM 43.8486 -90.4375 119° Southeast 420 483 34,300 660 Climbing Minneapolis Center
06:25PM 43.7900 -90.3019 121° Southeast 413 475 35,000 300 Climbing Minneapolis Center
06:26PM 43.7314 -90.1353 116° Southeast 416 479 35,000  Level Minneapolis Center
06:27PM 43.7047 -89.9711 103° East 436 502 35,000  Level Minneapolis Center
06:28PM 43.6764 -89.8081 103° East 436 502 35,000  Level Minneapolis Center
06:29PM 43.6644 -89.7556 107° East 435 501 35,000  Level Chicago Center
06:30PM 43.6347 -89.5944 104° East 431 496 35,000  Level Chicago Center
06:31PM 43.6058 -89.4344 104° East 430 495 35,000  Level Chicago Center
06:32PM 43.5686 -89.2472 105° East 432 497 35,000  Level Chicago Center
06:33PM 43.5383 -89.0864 105° East 433 498 35,000  Level Chicago Center
06:34PM 43.5075 -88.9253 105° East 436 502 35,000  Level Chicago Center
06:35PM 43.4756 -88.7600 105° East 444 511 35,000  Level Chicago Center
06:36PM 43.4450 -88.6058 105° East 442 509 35,000  Level Chicago Center
06:37PM 43.4075 -88.4258 106° East 450 518 35,000  Level Chicago Center
06:38PM 43.3753 -88.2536 104° East 441 507 35,000  Level Chicago Center
06:39PM 43.3433 -88.0933 105° East 437 503 35,000  Level Chicago Center
06:40PM 43.3108 -87.9331 106° East 437 503 35,000  Level Chicago Center
06:41PM 43.2731 -87.7481 106° East 433 498 35,000  Level Chicago Center
06:42PM 43.2406 -87.5903 106° East 430 495 35,000  Level Chicago Center
06:43PM 43.2083 -87.4314 105° East 432 497 35,000  Level Chicago Center
06:44PM 43.1758 -87.2808 106° East 433 498 35,000  Level Chicago Center
06:45PM 43.1439 -87.1253 106° East 427 491 35,000  Level Chicago Center
06:46PM 43.1106 -86.9694 106° East 428 493 35,000  Level Chicago Center
06:47PM 43.0700 -86.7808 106° East 432 497 35,000  Level Chicago Center
06:48PM 43.0369 -86.6231 106° East 434 499 35,000  Level Chicago Center
06:49PM 43.0025 -86.4667 107° East 433 498 35,000  Level Chicago Center
06:50PM 42.9681 -86.3114 107° East 432 497 35,000  Level Chicago Center
06:51PM 42.9317 -86.1561 108° East 436 502 35,000  Level Chicago Center
06:52PM 42.8900 -85.9675 107° East 443 510 35,000  Level Chicago Center
06:54PM 42.8575 -85.8106 106° East 440 506 35,000  Level Chicago Center
06:55PM 42.8217 -85.6536 107° East 438 504 35,000  Level Chicago Center
06:56PM 42.7861 -85.4958 107° East 438 504 35,000  Level Chicago Center
06:57PM 42.7356 -85.3497 115° Southeast 431 496 35,000  Level Chicago Center
06:58PM 42.6736 -85.1706 115° Southeast 435 501 35,000  Level Chicago Center
06:59PM 42.6211 -85.0242 116° Southeast 433 498 35,000  Level Chicago Center
07:00PM 42.5706 -84.8772 115° Southeast 431 496 35,000  Level Chicago Center
07:01PM 42.5186 -84.7325 116° Southeast 430 495 35,000  Level Chicago Center
07:02PM 42.4672 -84.5875 116° Southeast 428 493 35,000  Level Chicago Center
07:03PM 42.4139 -84.4411 116° Southeast 432 497 35,000  Level Chicago Center
07:04PM 42.3583 -84.3039 119° Southeast 436 502 35,000  Level Cleveland Center
07:05PM 42.3067 -84.1603 116° Southeast 436 502 35,000  Level Cleveland Center
07:06PM 42.2525 -84.0169 117° Southeast 436 502 35,000  Level Cleveland Center
07:07PM 42.2044 -83.8825 116° Southeast 436 502 35,000  Level Cleveland Center
07:08PM 42.1500 -83.7425 118° Southeast 436 502 35,000  Level Cleveland Center
07:09PM 42.0956 -83.5969 117° Southeast 436 502 35,000  Level Cleveland Center
07:10PM 42.0350 -83.4375 117° Southeast 436 502 35,000  Level Cleveland Center
07:11PM 41.9692 -83.3089 125° Southeast 431 496 35,000  Level Cleveland Center
07:12PM 41.9053 -83.1892 126° Southeast 431 496 35,000  Level Cleveland Center
07:13PM 41.8372 -83.0608 125° Southeast 431 496 35,000  Level Cleveland Center
07:14PM 41.7692 -82.9331 126° Southeast 431 496 35,000  Level Cleveland Center
07:15PM 41.7028 -82.8053 125° Southeast 431 496 35,000  Level Cleveland Center
07:16PM 41.6303 -82.6694 126° Southeast 419 482 35,000  Level Cleveland Center
07:17PM 41.5617 -82.5422 126° Southeast 419 482 35,000  Level Cleveland Center
07:18PM 41.4931 -82.4128 125° Southeast 419 482 35,000  Level Cleveland Center
07:19PM 41.4322 -82.3003 126° Southeast 419 482 35,000  Level Cleveland Center
07:20PM 41.3611 -82.1767 127° Southeast 414 476 35,000  Level Cleveland Center
07:21PM 41.2667 -82.0611 137° Southeast 414 476 35,000  Level Cleveland Center
07:22PM 41.1742 -81.9653 142° Southeast 414 476 35,000  Level Cleveland Center
07:23PM 41.0833 -81.8861 147° Southeast 432 497 35,000  Level Cleveland Center
07:24PM 40.9883 -81.7878 142° Southeast 438 504 35,000  Level Cleveland Center
07:25PM 40.8997 -81.6956 142° Southeast 423 487 35,000  Level Cleveland Center
07:26PM 40.8089 -81.6036 143° Southeast 416 479 35,000  Level Cleveland Center
07:27PM 40.7139 -81.5089 143° Southeast 416 479 35,000  Level Cleveland Center
07:28PM 40.6228 -81.4147 142° Southeast 427 491 35,000  Level Cleveland Center
07:29PM 40.5214 -81.3097 142° Southeast 422 486 35,000  Level Cleveland Center
07:30PM 40.4239 -81.2131 143° Southeast 427 491 35,000 -180 Level Cleveland Center
07:31PM 40.3244 -81.1142 143° Southeast 439 505 34,700 -600 Descending Cleveland Center
07:32PM 40.2436 -81.0183 138° Southeast 444 511 33,800 -900 Descending Cleveland Center
07:33PM 40.1564 -80.9092 136° Southeast 438 504 33,000 -900 Descending Cleveland Center
07:34PM 40.0733 -80.8000 135° Southeast 427 491 32,100 -720 Descending Cleveland Center
07:35PM 39.9878 -80.6886 135° Southeast 427 491 31,600 -600 Descending Cleveland Center
07:36PM 39.9003 -80.5803 136° Southeast 427 491 31,000 -300 Descending Cleveland Center
07:37PM 39.8128 -80.4694 136° Southeast 427 491 31,000  Level Cleveland Center
07:39PM 39.6361 -80.2481 136° Southeast 436 502 31,000  Level Washington Center
07:40PM 39.5508 -80.1403 136° Southeast 436 502 31,000  Level Washington Center
07:41PM 39.4631 -80.0297 136° Southeast 436 502 31,000  Level Washington Center
07:42PM 39.3794 -79.9253 136° Southeast 431 496 31,000  Level Washington Center
07:43PM 39.3019 -79.8186 133° Southeast 424 488 31,000  Level Washington Center
07:44PM 39.2842 -79.6703 99° East 389 448 31,000  Level Washington Center
07:45PM 39.2722 -79.5247 96° East 395 455 31,000 -420 Level Washington Center
07:46PM 39.2606 -79.3739 96° East 407 468 30,200 -1,680 Descending Washington Center
07:47PM 39.2467 -79.2150 96° East 417 480 27,700 -1,800 Descending Washington Center
07:48PM 39.2344 -79.0644 96° East 429 494 26,600 -1,260 Descending Washington Center
07:49PM 39.2178 -78.9083 98° East 429 494 25,200 -1,920 Descending Washington Center
07:50PM 39.2053 -78.7631 96° East 423 487 22,900 -2,220 Descending Washington Center
07:51PM 39.1900 -78.6206 98° East 411 473 20,800 -2,100 Descending Washington Center
07:52PM 39.1750 -78.4672 97° East 400 460 18,700 -2,100 Descending Washington Center
07:53PM 39.1553 -78.3325 101° East 395 455 16,700 -1,500 Descending Washington Center
07:54PM 39.1228 -78.2003 108° East 377 434 15,700 -1,020 Descending Washington Center
07:55PM 39.0900 -78.0761 109° East 377 434 14,700 -1,080 Descending Washington Center
07:56PM 39.0592 -77.9519 108° East 372 428 13,600 -1,200 Descending Washington Center
07:57PM 39.0319 -77.8442 108° East 360 414 12,400 -1,320 Descending Washington Center
07:58PM 38.9989 -77.7178 109° East 342 394 11,000 -1,440 Descending Washington Center
07:59PM 38.9756 -77.6261 108° East 306 352 9,500 -1,560 Descending Washington Center
07:59PM 38.9667 -77.5833 105° East 292 336 9,000 -780 Descending Potomac TRACON
08:00PM 38.9500 -77.5000 104° East 304 350 8,600 -1,200 Descending Potomac TRACON
08:01PM 38.9667 -77.3833 80° East 298 343 6,800 -1,800 Descending Potomac TRACON
08:02PM 38.9833 -77.2833 78° East 283 326 4,900 -1,140 Descending Potomac TRACON
08:03PM 38.9667 -77.2000 104° East 213 245 4,500 -900 Descending Potomac TRACON
08:04PM 38.9500 -77.1500 113° Southeast 158 182 3,200 -1,320 Descending Potomac TRACON